createdAt,value
2019-02-18T00:02:38.621Z,33.50
2019-02-18T00:05:43.294Z,34.27
2019-02-18T00:08:51.557Z,31.67
2019-02-18T00:11:55.846Z,32.70
2019-02-18T00:15:00.327Z,32.10
2019-02-18T00:18:04.772Z,32.77
2019-02-18T00:21:09.070Z,32.80
2019-02-18T00:24:13.590Z,32.00
2019-02-18T00:27:17.986Z,32.37
2019-02-18T00:30:22.238Z,31.73
2019-02-18T00:33:26.543Z,33.63
2019-02-18T00:36:30.899Z,33.07
2019-02-18T00:39:35.267Z,31.63
2019-02-18T00:42:39.599Z,33.00
2019-02-18T00:45:43.919Z,33.20
2019-02-18T00:48:48.249Z,33.67
2019-02-18T00:51:52.533Z,32.83
2019-02-18T00:54:56.927Z,32.87
2019-02-18T00:58:01.210Z,32.50
2019-02-18T01:01:05.657Z,32.83
2019-02-18T01:04:10.040Z,31.80
2019-02-18T01:07:14.339Z,32.43
2019-02-18T01:10:18.853Z,33.57
2019-02-18T01:13:23.143Z,33.17
2019-02-18T01:16:27.510Z,32.23
2019-02-18T01:19:31.785Z,31.40
2019-02-18T01:22:36.063Z,31.77
2019-02-18T01:25:40.372Z,30.70
2019-02-18T01:28:44.746Z,31.40
2019-02-18T01:31:49.047Z,29.67
2019-02-18T01:34:53.327Z,31.30
2019-02-18T01:37:57.716Z,29.73
2019-02-18T01:41:01.998Z,31.23
2019-02-18T01:44:06.293Z,29.93
2019-02-18T01:47:10.685Z,28.17
2019-02-18T01:50:15.839Z,29.13
2019-02-18T01:53:20.140Z,29.83
2019-02-18T01:56:24.491Z,28.93
2019-02-18T01:59:28.782Z,31.03
2019-02-18T02:02:33.210Z,28.70
2019-02-18T02:05:37.552Z,29.57
2019-02-18T02:08:42.189Z,30.33
2019-02-18T02:11:46.603Z,27.67
2019-02-18T02:14:50.888Z,30.83
2019-02-18T02:17:55.186Z,29.83
2019-02-18T02:20:59.568Z,28.60
2019-02-18T02:24:03.848Z,30.10
2019-02-18T02:27:08.148Z,30.40
2019-02-18T02:30:12.525Z,29.00
2019-02-18T02:33:16.782Z,29.93
2019-02-18T02:36:21.357Z,30.60
2019-02-18T02:39:25.606Z,29.43
2019-02-18T02:42:29.880Z,29.70
2019-02-18T02:45:34.178Z,29.07
2019-02-18T02:48:38.464Z,29.20
2019-02-18T02:51:42.752Z,31.83
2019-02-18T02:54:47.033Z,30.23
2019-02-18T02:57:51.335Z,29.73
2019-02-18T03:00:55.640Z,30.83
2019-02-18T03:03:59.958Z,30.03
2019-02-18T03:07:04.394Z,29.27
2019-02-18T03:10:10.172Z,29.27
2019-02-18T03:13:14.454Z,28.77
2019-02-18T03:16:19.036Z,29.07
2019-02-18T03:19:23.336Z,27.97
2019-02-18T03:22:27.687Z,29.60
2019-02-18T03:25:31.983Z,28.40
2019-02-18T03:29:17.190Z,28.57
2019-02-18T03:32:21.630Z,29.37
2019-02-18T03:35:25.941Z,27.60
2019-02-18T03:38:31.983Z,30.77
2019-02-18T03:41:36.655Z,29.20
2019-02-18T03:44:40.976Z,26.13
2019-02-18T03:47:45.378Z,28.93
2019-02-18T03:50:49.668Z,27.70
2019-02-18T03:53:53.959Z,27.80
2019-02-18T03:56:58.238Z,28.53
2019-02-18T04:00:02.616Z,29.63
2019-02-18T04:03:06.929Z,28.50
2019-02-18T04:06:11.215Z,28.90
2019-02-18T04:09:15.483Z,29.10
2019-02-18T04:12:19.779Z,28.90
2019-02-18T04:15:24.057Z,30.33
2019-02-18T04:18:28.399Z,28.97
2019-02-18T04:21:32.681Z,28.87
2019-02-18T04:24:36.986Z,28.60
2019-02-18T04:27:41.356Z,28.53
2019-02-18T04:30:45.676Z,28.40
2019-02-18T04:33:50.061Z,29.47
2019-02-18T04:36:54.339Z,27.70
2019-02-18T04:40:00.454Z,29.77
2019-02-18T04:43:04.714Z,29.40
2019-02-18T04:46:09.002Z,27.97
2019-02-18T04:49:13.274Z,28.97
2019-02-18T04:52:17.560Z,28.87
2019-02-18T04:55:21.871Z,29.37
2019-02-18T04:58:26.139Z,29.30
2019-02-18T05:01:30.439Z,28.57
2019-02-18T05:04:34.732Z,27.50
2019-02-18T05:07:39.119Z,28.13
2019-02-18T05:10:43.458Z,28.30
2019-02-18T05:13:47.818Z,29.77
2019-02-18T05:16:52.124Z,28.17
2019-02-18T05:19:58.197Z,29.33
2019-02-18T05:23:03.701Z,29.80
2019-02-18T05:26:07.989Z,28.93
2019-02-18T05:29:12.390Z,29.03
2019-02-18T05:32:16.699Z,29.27
2019-02-18T05:35:21.122Z,29.47
2019-02-18T05:38:25.439Z,29.60
2019-02-18T05:41:31.256Z,29.30
2019-02-18T05:44:35.803Z,32.00
2019-02-18T05:47:40.087Z,29.27
2019-02-18T05:50:44.464Z,30.67
2019-02-18T05:53:48.770Z,29.00
2019-02-18T05:56:53.079Z,30.30
2019-02-18T05:59:57.426Z,30.03
2019-02-18T06:03:01.754Z,30.27
2019-02-18T06:06:06.141Z,30.30
2019-02-18T06:09:10.440Z,30.53
2019-02-18T06:12:14.759Z,31.43
2019-02-18T06:15:19.167Z,30.03
2019-02-18T06:18:23.571Z,28.57
2019-02-18T06:21:27.952Z,30.90
2019-02-18T06:24:32.255Z,31.30
2019-02-18T06:27:37.739Z,30.77
2019-02-18T06:30:42.035Z,31.80
2019-02-18T06:33:46.329Z,31.10
2019-02-18T06:36:50.699Z,30.80
2019-02-18T06:39:54.990Z,31.53
2019-02-18T06:42:59.506Z,31.63
2019-02-18T06:46:10.351Z,30.07
2019-02-18T06:49:19.960Z,30.53
2019-02-18T06:52:27.009Z,33.43
2019-02-18T06:55:31.397Z,32.30
2019-02-18T06:59:07.728Z,32.63
2019-02-18T07:02:19.743Z,31.63
2019-02-18T07:05:49.004Z,33.50
2019-02-18T07:09:12.216Z,32.03
2019-02-18T07:12:31.186Z,32.57
2019-02-18T07:15:38.492Z,32.63
2019-02-18T07:18:42.777Z,32.73
2019-02-18T07:21:48.512Z,31.63
2019-02-18T07:24:52.886Z,32.53
2019-02-18T07:27:57.283Z,34.07
2019-02-18T07:31:04.341Z,32.70
2019-02-18T07:34:08.712Z,30.00
2019-02-18T07:37:13.002Z,31.40
2019-02-18T07:40:17.285Z,30.87
2019-02-18T07:43:23.112Z,32.23
2019-02-18T07:46:27.743Z,32.53
2019-02-18T07:49:32.046Z,31.13
2019-02-18T07:52:38.614Z,31.23
2019-02-18T07:55:43.064Z,30.20
2019-02-18T07:58:47.443Z,29.67
2019-02-18T08:01:51.742Z,31.33
2019-02-18T08:04:56.108Z,30.47
2019-02-18T08:08:00.536Z,31.00
2019-02-18T08:11:05.052Z,31.67
2019-02-18T08:14:09.370Z,30.80
2019-02-18T08:17:15.133Z,30.80
2019-02-18T08:20:19.408Z,31.03
2019-02-18T08:23:23.696Z,31.33
2019-02-18T08:26:29.493Z,30.57
2019-02-18T08:29:33.808Z,30.03
2019-02-18T08:32:39.750Z,30.97
2019-02-18T08:35:47.126Z,30.97
2019-02-18T08:38:51.468Z,31.40
2019-02-18T08:41:55.739Z,31.03
2019-02-18T08:45:03.232Z,30.27
2019-02-18T08:48:07.537Z,29.67
2019-02-18T08:51:14.455Z,29.20
2019-02-18T08:54:18.844Z,28.63
2019-02-18T08:57:23.189Z,29.67
2019-02-18T09:00:31.429Z,29.60
2019-02-18T09:03:37.100Z,29.33
2019-02-18T09:06:43.167Z,29.70
2019-02-18T09:09:47.467Z,29.47
2019-02-18T09:12:53.240Z,29.13
2019-02-18T09:16:00.410Z,27.77
2019-02-18T09:19:03.647Z,27.63
2019-02-18T09:22:26.669Z,26.17
2019-02-18T09:25:44.121Z,26.77
2019-02-18T09:28:48.546Z,28.00
2019-02-18T09:31:53.072Z,27.97
2019-02-18T09:35:02.117Z,28.10
2019-02-18T09:38:03.832Z,26.90
2019-02-18T09:41:10.867Z,27.30
2019-02-18T09:44:20.324Z,26.03
2019-02-18T09:47:24.963Z,27.50
2019-02-18T09:50:29.613Z,26.77
2019-02-18T09:53:34.502Z,26.87
2019-02-18T09:56:39.079Z,26.57
2019-02-18T09:59:46.416Z,27.90
2019-02-18T10:02:51.023Z,25.73
2019-02-18T10:05:55.460Z,26.60
2019-02-18T10:08:59.829Z,27.60
2019-02-18T10:12:04.285Z,25.97
2019-02-18T10:15:09.158Z,27.03
2019-02-18T10:18:13.608Z,26.57
2019-02-18T10:21:19.599Z,27.00
2019-02-18T10:24:25.370Z,26.30
2019-02-18T10:27:29.916Z,26.90
2019-02-18T10:30:34.209Z,26.67
2019-02-18T10:33:38.660Z,26.07
2019-02-18T10:36:44.403Z,25.30
2019-02-18T10:39:48.802Z,25.73
2019-02-18T10:42:53.146Z,24.80
2019-02-18T10:45:57.516Z,24.13
2019-02-18T10:49:02.219Z,24.77
2019-02-18T10:52:06.694Z,23.17
2019-02-18T10:55:11.218Z,25.03
2019-02-18T10:58:15.793Z,23.23
2019-02-18T11:01:20.540Z,25.50
2019-02-18T11:04:24.997Z,23.30
2019-02-18T11:07:29.574Z,23.60
2019-02-18T11:10:34.052Z,24.77
2019-02-18T11:13:38.433Z,23.70
2019-02-18T11:16:42.818Z,23.87
2019-02-18T11:19:47.921Z,21.67
2019-02-18T11:22:52.661Z,22.67
2019-02-18T11:25:57.062Z,23.20
2019-02-18T11:29:01.554Z,21.67
2019-02-18T11:32:06.646Z,20.63
2019-02-18T11:35:11.434Z,20.67
2019-02-18T11:38:16.232Z,21.30
2019-02-18T11:41:27.320Z,20.70
2019-02-18T11:44:27.010Z,18.13
2019-02-18T11:47:31.318Z,18.30
2019-02-18T11:50:35.824Z,17.97
2019-02-18T11:53:40.180Z,18.87
2019-02-18T11:56:44.543Z,19.63
2019-02-18T11:59:49.196Z,19.13
2019-02-18T12:03:02.871Z,19.77
2019-02-18T12:06:03.462Z,19.77
2019-02-18T12:09:09.242Z,17.87
2019-02-18T12:12:13.678Z,17.97
2019-02-18T12:15:18.429Z,18.13
2019-02-18T12:18:22.942Z,18.53
2019-02-18T12:21:27.655Z,17.60
2019-02-18T12:24:32.053Z,17.70
2019-02-18T12:27:38.876Z,17.40
2019-02-18T12:30:43.413Z,17.17
2019-02-18T12:33:48.162Z,17.07
2019-02-18T12:36:52.609Z,16.83
2019-02-18T12:39:56.915Z,16.93
2019-02-18T12:43:01.283Z,15.90
2019-02-18T12:46:15.289Z,16.97
2019-02-18T12:49:12.291Z,16.50
2019-02-18T12:52:17.215Z,15.57
2019-02-18T12:55:24.835Z,15.87
2019-02-18T12:58:29.390Z,16.40
2019-02-18T13:01:33.742Z,15.60
2019-02-18T13:04:38.158Z,15.80
2019-02-18T13:07:42.708Z,16.33
2019-02-18T13:10:47.183Z,15.47
2019-02-18T13:13:51.533Z,16.47
2019-02-18T13:16:55.849Z,31.97
2019-02-18T13:20:00.324Z,16.73
2019-02-18T13:23:04.696Z,15.30
2019-02-18T13:26:10.530Z,15.37
2019-02-18T13:29:14.861Z,14.43
2019-02-18T13:32:19.411Z,14.30
2019-02-18T13:35:25.544Z,14.53
2019-02-18T13:38:29.876Z,15.37
2019-02-18T13:41:34.360Z,15.30
2019-02-18T13:44:38.825Z,15.77
2019-02-18T13:47:43.167Z,15.03
2019-02-18T13:50:47.517Z,15.37
2019-02-18T13:53:52.015Z,14.87
2019-02-18T13:56:56.609Z,15.07
2019-02-18T14:00:01.786Z,15.00
2019-02-18T14:03:06.263Z,15.30
2019-02-18T14:06:13.085Z,14.87
2019-02-18T14:09:20.285Z,15.60
2019-02-18T14:12:24.916Z,15.43
2019-02-18T14:15:29.500Z,15.97
2019-02-18T14:18:35.571Z,14.67
2019-02-18T14:21:39.914Z,15.47
2019-02-18T14:24:44.668Z,15.27
2019-02-18T14:27:48.956Z,14.00
2019-02-18T14:30:53.260Z,13.30
2019-02-18T14:33:57.590Z,13.37
2019-02-18T14:37:01.904Z,13.03
2019-02-18T14:40:06.631Z,12.33
2019-02-18T14:43:10.890Z,13.50
2019-02-18T14:46:15.504Z,13.90
2019-02-18T14:49:19.796Z,13.43
2019-02-18T14:52:24.400Z,13.27
2019-02-18T14:55:28.837Z,14.87
2019-02-18T14:58:34.365Z,13.43
2019-02-18T15:01:38.828Z,12.87
2019-02-18T15:04:43.967Z,12.60
2019-02-18T15:07:54.229Z,12.23
2019-02-18T15:11:07.107Z,12.70
2019-02-18T15:14:13.351Z,12.43
2019-02-18T15:17:17.659Z,12.70
2019-02-18T15:20:22.007Z,12.60
2019-02-18T15:23:26.445Z,12.20
2019-02-18T15:26:31.151Z,12.07
2019-02-18T15:29:35.482Z,11.20
2019-02-18T15:32:39.802Z,11.17
2019-02-18T15:35:44.361Z,11.37
2019-02-18T15:38:48.832Z,11.23
2019-02-18T15:41:54.199Z,10.87
2019-02-18T15:45:00.486Z,11.47
2019-02-18T15:48:05.168Z,11.23
2019-02-18T15:51:09.530Z,10.83
2019-02-18T15:54:14.565Z,10.97
2019-02-18T15:57:18.985Z,12.17
2019-02-18T16:00:24.229Z,11.70
2019-02-18T16:03:28.639Z,11.77
2019-02-18T16:06:32.942Z,12.90
2019-02-18T16:09:37.321Z,12.43
2019-02-18T16:12:50.204Z,12.43
2019-02-18T16:15:47.758Z,13.20
2019-02-18T16:18:52.185Z,12.27
2019-02-18T16:21:56.633Z,13.57
2019-02-18T16:25:00.934Z,13.03
2019-02-18T16:28:05.921Z,13.83
2019-02-18T16:31:12.601Z,13.70
2019-02-18T16:34:16.890Z,14.50
2019-02-18T16:37:21.187Z,13.97
2019-02-18T16:40:27.683Z,14.10
2019-02-18T16:43:32.083Z,14.43
2019-02-18T16:46:36.393Z,14.57
2019-02-18T16:49:41.110Z,15.63
2019-02-18T16:52:47.147Z,14.90
2019-02-18T16:55:51.442Z,15.50
2019-02-18T16:58:55.749Z,15.23
2019-02-18T17:02:00.088Z,16.03
2019-02-18T17:05:04.698Z,16.30
2019-02-18T17:08:12.755Z,16.80
2019-02-18T17:11:18.154Z,16.83
2019-02-18T17:14:22.609Z,20.80
2019-02-18T17:17:30.150Z,19.07
2019-02-18T17:20:35.655Z,20.27
2019-02-18T17:23:42.039Z,19.77
2019-02-18T17:26:47.841Z,19.30
2019-02-18T17:29:52.187Z,19.17
2019-02-18T17:32:59.193Z,18.60
2019-02-18T17:36:03.468Z,18.70
2019-02-18T17:39:08.305Z,18.80
2019-02-18T17:42:12.795Z,19.33
2019-02-18T17:45:17.108Z,19.80
2019-02-18T17:48:21.420Z,19.30
2019-02-18T17:51:25.709Z,19.27
2019-02-18T17:54:30.004Z,19.70
2019-02-18T17:57:34.335Z,19.40
2019-02-18T18:00:40.556Z,19.53
2019-02-18T18:03:44.862Z,20.57
2019-02-18T18:06:54.231Z,20.53
2019-02-18T18:09:58.723Z,20.43
2019-02-18T18:13:03.076Z,21.40
2019-02-18T18:16:09.345Z,21.87
2019-02-18T18:19:13.650Z,22.43
2019-02-18T18:22:18.001Z,22.70
2019-02-18T18:25:22.333Z,21.80
2019-02-18T18:28:26.662Z,21.77
2019-02-18T18:31:30.979Z,20.97
2019-02-18T18:34:35.399Z,22.47
2019-02-18T18:37:41.169Z,22.63
2019-02-18T18:40:45.781Z,22.17
2019-02-18T18:43:50.159Z,23.07
2019-02-18T18:46:54.466Z,22.70
2019-02-18T18:50:01.194Z,22.90
2019-02-18T18:53:05.556Z,23.70
2019-02-18T18:56:10.061Z,22.70
2019-02-18T18:59:14.691Z,23.37
2019-02-18T19:02:19.092Z,22.43
2019-02-18T19:05:23.658Z,22.63
2019-02-18T19:08:28.089Z,22.70
2019-02-18T19:11:32.577Z,23.80
2019-02-18T19:14:36.935Z,22.83
2019-02-18T19:17:42.884Z,25.40
2019-02-18T19:20:47.902Z,28.87
2019-02-18T19:23:52.391Z,25.30
2019-02-18T19:26:56.792Z,25.87
2019-02-18T19:30:01.601Z,25.40
2019-02-18T19:33:08.889Z,23.97
2019-02-18T19:36:13.379Z,24.53
2019-02-18T19:39:18.002Z,24.43
2019-02-18T19:42:24.638Z,28.57
2019-02-18T19:45:32.933Z,28.80
2019-02-18T19:48:37.822Z,27.67
2019-02-18T19:51:45.588Z,27.70
2019-02-18T19:54:50.382Z,27.13
2019-02-18T19:57:55.167Z,25.80
2019-02-18T20:00:59.807Z,27.73
2019-02-18T20:04:07.588Z,27.43
2019-02-18T20:07:12.188Z,28.40
2019-02-18T20:10:17.017Z,27.63
2019-02-18T20:13:22.967Z,25.43
2019-02-18T20:16:27.664Z,24.37
2019-02-18T20:19:32.347Z,23.17
2019-02-18T20:22:37.525Z,24.90
2019-02-18T20:25:42.273Z,24.40
2019-02-18T20:28:46.970Z,24.43
2019-02-18T20:31:51.654Z,23.87
2019-02-18T20:34:56.317Z,22.83
2019-02-18T20:38:01.190Z,21.83
2019-02-18T20:41:06.097Z,20.57
2019-02-18T20:44:10.660Z,20.60
2019-02-18T20:47:15.440Z,19.03
2019-02-18T20:50:19.848Z,19.60
2019-02-18T20:53:24.494Z,18.57
2019-02-18T20:56:31.796Z,17.70
2019-02-18T20:59:38.145Z,17.57
2019-02-18T21:02:43.087Z,18.97
2019-02-18T21:05:47.514Z,20.17
2019-02-18T21:08:54.850Z,20.37
2019-02-18T21:11:59.530Z,22.03
2019-02-18T21:15:06.102Z,20.50
2019-02-18T21:18:10.247Z,20.50
2019-02-18T21:21:14.623Z,20.27
2019-02-18T21:24:19.009Z,21.00
2019-02-18T21:27:26.361Z,20.00
2019-02-18T21:30:30.792Z,20.93
2019-02-18T21:33:35.584Z,21.70
2019-02-18T21:36:39.943Z,21.17
2019-02-18T21:39:44.247Z,21.47
2019-02-18T21:42:48.588Z,21.83
2019-02-18T21:45:52.907Z,20.13
2019-02-18T21:48:57.430Z,22.23
2019-02-18T21:52:04.779Z,21.83
2019-02-18T21:55:09.326Z,22.53
2019-02-18T21:58:14.753Z,23.77
2019-02-18T22:01:19.401Z,24.47
2019-02-18T22:04:25.948Z,25.57
2019-02-18T22:07:30.434Z,25.13
2019-02-18T22:10:34.923Z,25.07
2019-02-18T22:13:39.330Z,25.37
2019-02-18T22:16:43.769Z,27.70
2019-02-18T22:19:48.072Z,27.83
2019-02-18T22:22:54.423Z,29.37
2019-02-18T22:25:58.744Z,28.20
2019-02-18T22:29:05.552Z,30.27
2019-02-18T22:32:09.856Z,26.97
2019-02-18T22:35:14.258Z,25.30
2019-02-18T22:38:18.883Z,24.93
2019-02-18T22:41:23.167Z,25.07
2019-02-18T22:44:30.448Z,25.47
2019-02-18T22:47:36.608Z,25.03
2019-02-18T22:50:41.155Z,25.97
2019-02-18T22:53:45.559Z,26.10
2019-02-18T22:56:49.855Z,27.83
2019-02-18T22:59:57.136Z,29.97
2019-02-18T23:03:01.446Z,30.67
2019-02-18T23:06:06.003Z,30.03
2019-02-18T23:09:12.601Z,31.27
2019-02-18T23:12:16.991Z,32.00
2019-02-18T23:15:21.288Z,30.90
2019-02-18T23:18:27.067Z,31.10
2019-02-18T23:21:31.347Z,31.80
2019-02-18T23:24:35.637Z,32.07
2019-02-18T23:27:40.182Z,33.73
2019-02-18T23:30:44.613Z,34.37
2019-02-18T23:33:49.415Z,33.97
2019-02-18T23:36:53.820Z,35.60
2019-02-18T23:39:59.271Z,37.03
2019-02-18T23:43:03.562Z,38.43
2019-02-18T23:46:07.865Z,38.90
2019-02-18T23:49:12.269Z,37.23
2019-02-18T23:52:16.570Z,37.87
2019-02-18T23:55:20.882Z,38.90
2019-02-18T23:58:27.932Z,36.73
